sensor_id;sensor_type;location;lat;lon;timestamp;pressure;altitude;pressure_sealevel;temperature;humidity
18985;BME280;9626;52.552;13.436;2022-08-19T00:02:22;100372.81;;;21.16;100.00
18985;BME280;9626;52.552;13.436;2022-08-19T00:05:08;100379.28;;;21.00;100.00
18985;BME280;9626;52.552;13.436;2022-08-19T00:07:53;100382.41;;;21.07;100.00
18985;BME280;9626;52.552;13.436;2022-08-19T00:10:19;100379.50;;;20.97;100.00
18985;BME280;9626;52.552;13.436;2022-08-19T00:12:45;100384.53;;;21.02;100.00
18985;BME280;9626;52.552;13.436;2022-08-19T00:15:13;100388.53;;;21.09;100.00
18985;BME280;9626;52.552;13.436;2022-08-19T00:17:40;100393.50;;;21.15;100.00
18985;BME280;9626;52.552;13.436;2022-08-19T00:20:09;100397.38;;;21.24;100.00
18985;BME280;9626;52.552;13.436;2022-08-19T00:22:37;100406.22;;;21.26;100.00
18985;BME280;9626;52.552;13.436;2022-08-19T00:25:04;100419.59;;;21.27;100.00
18985;BME280;9626;52.552;13.436;2022-08-19T00:27:29;100419.47;;;21.29;100.00
18985;BME280;9626;52.552;13.436;2022-08-19T00:29:55;100411.84;;;21.36;100.00
18985;BME280;9626;52.552;13.436;2022-08-19T00:32:21;100409.91;;;21.38;100.00
18985;BME280;9626;52.552;13.436;2022-08-19T00:34:46;100404.72;;;21.35;100.00
18985;BME280;9626;52.552;13.436;2022-08-19T00:37:12;100407.53;;;21.33;100.00
18985;BME280;9626;52.552;13.436;2022-08-19T00:39:38;100393.50;;;21.15;100.00
18985;BME280;9626;52.552;13.436;2022-08-19T00:42:03;100389.19;;;21.25;100.00
18985;BME280;9626;52.552;13.436;2022-08-19T00:44:29;100383.72;;;21.14;100.00
18985;BME280;9626;52.552;13.436;2022-08-19T00:47:14;100385.53;;;21.14;100.00
18985;BME280;9626;52.552;13.436;2022-08-19T00:49:50;100378.44;;;21.25;100.00
18985;BME280;9626;52.552;13.436;2022-08-19T00:52:27;100379.59;;;21.21;100.00
18985;BME280;9626;52.552;13.436;2022-08-19T00:54:55;100380.59;;;21.20;100.00
18985;BME280;9626;52.552;13.436;2022-08-19T00:57:27;100389.09;;;21.14;100.00
18985;BME280;9626;52.552;13.436;2022-08-19T00:59:56;100395.66;;;21.10;100.00
18985;BME280;9626;52.552;13.436;2022-08-19T01:02:23;100410.94;;;21.09;100.00
18985;BME280;9626;52.552;13.436;2022-08-19T01:04:49;100402.31;;;21.04;100.00
18985;BME280;9626;52.552;13.436;2022-08-19T01:07:15;100403.38;;;21.02;100.00
18985;BME280;9626;52.552;13.436;2022-08-19T01:09:41;100391.00;;;20.99;100.00
18985;BME280;9626;52.552;13.436;2022-08-19T01:12:08;100392.41;;;21.05;100.00
18985;BME280;9626;52.552;13.436;2022-08-19T01:14:35;100393.91;;;20.96;100.00
18985;BME280;9626;52.552;13.436;2022-08-19T01:17:02;100393.78;;;20.98;100.00
18985;BME280;9626;52.552;13.436;2022-08-19T01:19:33;100414.38;;;20.99;100.00
18985;BME280;9626;52.552;13.436;2022-08-19T01:22:08;100418.22;;;20.94;100.00
18985;BME280;9626;52.552;13.436;2022-08-19T01:24:36;100418.78;;;21.00;100.00
18985;BME280;9626;52.552;13.436;2022-08-19T01:27:04;100416.09;;;21.00;100.00
18985;BME280;9626;52.552;13.436;2022-08-19T01:29:30;100419.75;;;20.99;100.00
18985;BME280;9626;52.552;13.436;2022-08-19T01:31:57;100435.91;;;20.99;100.00
18985;BME280;9626;52.552;13.436;2022-08-19T01:34:23;100438.25;;;20.90;100.00
18985;BME280;9626;52.552;13.436;2022-08-19T01:36:49;100443.41;;;20.93;100.00
18985;BME280;9626;52.552;13.436;2022-08-19T01:39:30;100430.72;;;20.96;100.00
18985;BME280;9626;52.552;13.436;2022-08-19T01:41:55;100412.97;;;20.93;100.00
18985;BME280;9626;52.552;13.436;2022-08-19T01:44:21;100427.66;;;20.87;100.00
18985;BME280;9626;52.552;13.436;2022-08-19T01:47:08;100430.16;;;20.90;100.00
18985;BME280;9626;52.552;13.436;2022-08-19T01:49:35;100439.41;;;20.86;100.00
18985;BME280;9626;52.552;13.436;2022-08-19T01:52:00;100441.66;;;20.80;100.00
18985;BME280;9626;52.552;13.436;2022-08-19T01:54:27;100439.59;;;20.83;100.00
18985;BME280;9626;52.552;13.436;2022-08-19T01:57:12;100439.53;;;20.85;100.00
18985;BME280;9626;52.552;13.436;2022-08-19T01:59:40;100437.13;;;20.80;100.00
18985;BME280;9626;52.552;13.436;2022-08-19T02:02:06;100426.28;;;20.67;100.00
18985;BME280;9626;52.552;13.436;2022-08-19T02:04:36;100420.72;;;20.70;100.00
18985;BME280;9626;52.552;13.436;2022-08-19T02:07:03;100416.44;;;20.53;100.00
18985;BME280;9626;52.552;13.436;2022-08-19T02:09:31;100387.47;;;20.44;100.00
18985;BME280;9626;52.552;13.436;2022-08-19T02:11:57;100377.22;;;20.22;100.00
18985;BME280;9626;52.552;13.436;2022-08-19T02:14:22;100386.78;;;19.99;100.00
18985;BME280;9626;52.552;13.436;2022-08-19T02:16:48;100381.66;;;19.81;100.00
18985;BME280;9626;52.552;13.436;2022-08-19T02:19:14;100391.28;;;19.69;100.00
18985;BME280;9626;52.552;13.436;2022-08-19T02:21:39;100369.41;;;19.75;100.00
18985;BME280;9626;52.552;13.436;2022-08-19T02:24:05;100358.38;;;19.66;100.00
18985;BME280;9626;52.552;13.436;2022-08-19T02:26:31;100364.94;;;19.47;100.00
18985;BME280;9626;52.552;13.436;2022-08-19T02:28:57;100352.81;;;19.40;100.00
18985;BME280;9626;52.552;13.436;2022-08-19T02:31:24;100335.75;;;19.41;100.00
18985;BME280;9626;52.552;13.436;2022-08-19T02:33:50;100346.31;;;19.58;100.00
18985;BME280;9626;52.552;13.436;2022-08-19T02:36:18;100351.38;;;19.77;100.00
18985;BME280;9626;52.552;13.436;2022-08-19T02:39:03;100359.28;;;19.81;100.00
18985;BME280;9626;52.552;13.436;2022-08-19T02:41:47;100366.06;;;19.86;100.00
18985;BME280;9626;52.552;13.436;2022-08-19T02:44:13;100381.03;;;19.90;100.00
18985;BME280;9626;52.552;13.436;2022-08-19T02:46:39;100380.28;;;19.88;100.00
18985;BME280;9626;52.552;13.436;2022-08-19T02:49:06;100374.91;;;19.88;100.00
18985;BME280;9626;52.552;13.436;2022-08-19T02:51:39;100377.41;;;19.91;100.00
18985;BME280;9626;52.552;13.436;2022-08-19T02:54:07;100378.94;;;19.96;100.00
18985;BME280;9626;52.552;13.436;2022-08-19T02:56:38;100383.13;;;20.00;100.00
18985;BME280;9626;52.552;13.436;2022-08-19T02:59:05;100387.09;;;20.08;100.00
18985;BME280;9626;52.552;13.436;2022-08-19T03:01:33;100384.66;;;20.04;100.00
18985;BME280;9626;52.552;13.436;2022-08-19T03:04:02;100371.34;;;20.02;100.00
18985;BME280;9626;52.552;13.436;2022-08-19T03:06:29;100371.13;;;20.05;100.00
18985;BME280;9626;52.552;13.436;2022-08-19T03:08:55;100370.28;;;20.05;100.00
18985;BME280;9626;52.552;13.436;2022-08-19T03:11:26;100380.06;;;20.06;100.00
18985;BME280;9626;52.552;13.436;2022-08-19T03:13:53;100382.97;;;20.03;100.00
18985;BME280;9626;52.552;13.436;2022-08-19T03:16:21;100364.06;;;20.04;100.00
18985;BME280;9626;52.552;13.436;2022-08-19T03:18:48;100363.00;;;20.07;100.00
18985;BME280;9626;52.552;13.436;2022-08-19T03:21:20;100350.09;;;20.12;100.00
18985;BME280;9626;52.552;13.436;2022-08-19T03:23:45;100355.47;;;20.12;100.00
18985;BME280;9626;52.552;13.436;2022-08-19T03:26:11;100327.78;;;19.97;100.00
18985;BME280;9626;52.552;13.436;2022-08-19T03:28:37;100329.41;;;20.00;100.00
18985;BME280;9626;52.552;13.436;2022-08-19T03:31:09;100326.53;;;20.03;100.00
18985;BME280;9626;52.552;13.436;2022-08-19T03:33:36;100327.28;;;20.05;100.00
18985;BME280;9626;52.552;13.436;2022-08-19T03:38:38;100329.13;;;20.04;100.00
18985;BME280;9626;52.552;13.436;2022-08-19T03:41:11;100342.47;;;20.06;100.00
18985;BME280;9626;52.552;13.436;2022-08-19T03:43:38;100330.53;;;20.10;100.00
18985;BME280;9626;52.552;13.436;2022-08-19T03:46:07;100328.72;;;20.10;100.00
18985;BME280;9626;52.552;13.436;2022-08-19T03:48:35;100326.47;;;20.17;100.00
18985;BME280;9626;52.552;13.436;2022-08-19T03:51:02;100330.34;;;20.13;100.00
18985;BME280;9626;52.552;13.436;2022-08-19T03:53:28;100335.44;;;20.03;100.00
18985;BME280;9626;52.552;13.436;2022-08-19T03:55:55;100333.88;;;20.14;100.00
18985;BME280;9626;52.552;13.436;2022-08-19T03:58:22;100330.34;;;20.13;100.00
18985;BME280;9626;52.552;13.436;2022-08-19T04:00:48;100340.69;;;20.19;100.00
18985;BME280;9626;52.552;13.436;2022-08-19T04:03:15;100328.22;;;20.18;100.00
18985;BME280;9626;52.552;13.436;2022-08-19T04:05:40;100312.94;;;20.19;100.00
18985;BME280;9626;52.552;13.436;2022-08-19T04:08:06;100317.25;;;20.21;100.00
18985;BME280;9626;52.552;13.436;2022-08-19T04:10:36;100326.63;;;20.29;100.00
18985;BME280;9626;52.552;13.436;2022-08-19T04:13:03;100322.59;;;20.36;100.00
18985;BME280;9626;52.552;13.436;2022-08-19T04:15:31;100327.41;;;20.31;100.00
18985;BME280;9626;52.552;13.436;2022-08-19T04:18:01;100336.75;;;20.25;100.00
18985;BME280;9626;52.552;13.436;2022-08-19T04:20:27;100346.94;;;20.20;100.00
18985;BME280;9626;52.552;13.436;2022-08-19T04:22:52;100349.72;;;20.18;100.00
18985;BME280;9626;52.552;13.436;2022-08-19T04:25:18;100358.25;;;20.25;100.00
18985;BME280;9626;52.552;13.436;2022-08-19T04:27:43;100348.69;;;20.34;100.00
18985;BME280;9626;52.552;13.436;2022-08-19T04:30:13;100342.38;;;20.35;100.00
18985;BME280;9626;52.552;13.436;2022-08-19T04:32:38;100341.59;;;20.33;100.00
18985;BME280;9626;52.552;13.436;2022-08-19T04:35:23;100341.81;;;20.30;100.00
18985;BME280;9626;52.552;13.436;2022-08-19T04:38:04;100335.56;;;20.29;100.00
18985;BME280;9626;52.552;13.436;2022-08-19T04:40:30;100340.38;;;20.24;100.00
18985;BME280;9626;52.552;13.436;2022-08-19T04:43:14;100343.53;;;20.31;100.00
18985;BME280;9626;52.552;13.436;2022-08-19T04:45:39;100342.69;;;20.30;100.00
18985;BME280;9626;52.552;13.436;2022-08-19T04:48:12;100342.88;;;20.27;100.00
18985;BME280;9626;52.552;13.436;2022-08-19T04:50:42;100348.91;;;20.31;100.00
18985;BME280;9626;52.552;13.436;2022-08-19T04:53:08;100338.50;;;20.39;100.00
18985;BME280;9626;52.552;13.436;2022-08-19T04:55:34;100337.72;;;20.37;100.00
18985;BME280;9626;52.552;13.436;2022-08-19T04:58:01;100341.41;;;20.36;100.00
18985;BME280;9626;52.552;13.436;2022-08-19T05:00:27;100344.09;;;20.36;100.00
18985;BME280;9626;52.552;13.436;2022-08-19T05:02:53;100343.13;;;20.37;100.00
18985;BME280;9626;52.552;13.436;2022-08-19T05:05:18;100345.50;;;20.41;100.00
18985;BME280;9626;52.552;13.436;2022-08-19T05:07:45;100336.28;;;20.46;100.00
18985;BME280;9626;52.552;13.436;2022-08-19T05:10:29;100332.19;;;20.40;100.00
18985;BME280;9626;52.552;13.436;2022-08-19T05:12:56;100334.53;;;20.44;100.00
18985;BME280;9626;52.552;13.436;2022-08-19T05:15:22;100322.69;;;20.34;100.00
18985;BME280;9626;52.552;13.436;2022-08-19T05:17:48;100330.06;;;20.45;100.00
18985;BME280;9626;52.552;13.436;2022-08-19T05:20:32;100320.38;;;20.55;100.00
18985;BME280;9626;52.552;13.436;2022-08-19T05:23:16;100320.50;;;20.54;100.00
18985;BME280;9626;52.552;13.436;2022-08-19T05:25:52;100311.34;;;20.56;100.00
18985;BME280;9626;52.552;13.436;2022-08-19T05:28:19;100313.50;;;20.64;100.00
18985;BME280;9626;52.552;13.436;2022-08-19T05:30:45;100307.06;;;20.67;100.00
18985;BME280;9626;52.552;13.436;2022-08-19T05:33:11;100316.59;;;20.72;100.00
18985;BME280;9626;52.552;13.436;2022-08-19T05:35:40;100311.22;;;20.72;100.00
18985;BME280;9626;52.552;13.436;2022-08-19T05:38:07;100302.59;;;20.80;100.00
18985;BME280;9626;52.552;13.436;2022-08-19T05:40:39;100295.72;;;20.76;100.00
18985;BME280;9626;52.552;13.436;2022-08-19T05:43:06;100286.69;;;20.77;100.00
18985;BME280;9626;52.552;13.436;2022-08-19T05:45:32;100287.00;;;20.85;100.00
18985;BME280;9626;52.552;13.436;2022-08-19T05:48:02;100296.38;;;20.92;100.00
18985;BME280;9626;52.552;13.436;2022-08-19T05:50:47;100306.94;;;20.96;100.00
18985;BME280;9626;52.552;13.436;2022-08-19T05:53:16;100310.38;;;20.98;100.00
18985;BME280;9626;52.552;13.436;2022-08-19T05:55:42;100310.94;;;21.03;100.00
18985;BME280;9626;52.552;13.436;2022-08-19T05:58:07;100307.16;;;21.05;100.00
18985;BME280;9626;52.552;13.436;2022-08-19T06:00:34;100303.28;;;21.09;100.00
18985;BME280;9626;52.552;13.436;2022-08-19T06:03:00;100290.16;;;21.18;100.00
18985;BME280;9626;52.552;13.436;2022-08-19T06:05:31;100293.59;;;21.20;100.00
18985;BME280;9626;52.552;13.436;2022-08-19T06:07:57;100306.94;;;21.21;100.00
18985;BME280;9626;52.552;13.436;2022-08-19T06:10:24;100305.22;;;21.20;100.00
18985;BME280;9626;52.552;13.436;2022-08-19T06:12:50;100312.31;;;21.21;100.00
18985;BME280;9626;52.552;13.436;2022-08-19T06:15:15;100313.72;;;21.14;100.00
18985;BME280;9626;52.552;13.436;2022-08-19T06:17:41;100323.53;;;21.15;100.00
18985;BME280;9626;52.552;13.436;2022-08-19T06:20:12;100334.19;;;21.17;100.00
18985;BME280;9626;52.552;13.436;2022-08-19T06:22:42;100321.81;;;21.27;100.00
18985;BME280;9626;52.552;13.436;2022-08-19T06:25:27;100314.91;;;21.36;100.00
18985;BME280;9626;52.552;13.436;2022-08-19T06:28:04;100322.56;;;21.42;100.00
18985;BME280;9626;52.552;13.436;2022-08-19T06:30:30;100316.72;;;21.48;100.00
18985;BME280;9626;52.552;13.436;2022-08-19T06:32:55;100311.91;;;21.53;100.00
18985;BME280;9626;52.552;13.436;2022-08-19T06:35:21;100308.03;;;21.57;100.00
18985;BME280;9626;52.552;13.436;2022-08-19T06:37:46;100314.56;;;21.66;100.00
18985;BME280;9626;52.552;13.436;2022-08-19T06:40:12;100306.66;;;21.76;100.00
18985;BME280;9626;52.552;13.436;2022-08-19T06:42:56;100308.88;;;21.71;100.00
18985;BME280;9626;52.552;13.436;2022-08-19T06:45:24;100303.91;;;21.65;100.00
18985;BME280;9626;52.552;13.436;2022-08-19T06:47:51;100312.75;;;21.67;100.00
18985;BME280;9626;52.552;13.436;2022-08-19T06:50:22;100317.69;;;21.73;100.00
18985;BME280;9626;52.552;13.436;2022-08-19T06:52:47;100330.31;;;21.72;100.00
18985;BME280;9626;52.552;13.436;2022-08-19T06:55:14;100338.56;;;21.82;100.00
18985;BME280;9626;52.552;13.436;2022-08-19T06:57:41;100335.53;;;21.87;100.00
18985;BME280;9626;52.552;13.436;2022-08-19T07:00:08;100336.84;;;21.81;100.00
18985;BME280;9626;52.552;13.436;2022-08-19T07:02:40;100331.44;;;21.81;100.00
18985;BME280;9626;52.552;13.436;2022-08-19T07:05:06;100340.06;;;21.86;100.00
18985;BME280;9626;52.552;13.436;2022-08-19T07:07:32;100350.13;;;21.84;100.00
18985;BME280;9626;52.552;13.436;2022-08-19T07:09:59;100353.91;;;21.82;100.00
18985;BME280;9626;52.552;13.436;2022-08-19T07:12:24;100354.00;;;21.80;100.00
18985;BME280;9626;52.552;13.436;2022-08-19T07:14:51;100362.09;;;21.80;100.00
18985;BME280;9626;52.552;13.436;2022-08-19T07:18:01;100363.06;;;21.79;100.00
18985;BME280;9626;52.552;13.436;2022-08-19T07:20:30;100367.69;;;21.77;100.00
18985;BME280;9626;52.552;13.436;2022-08-19T07:22:56;100356.69;;;21.80;100.00
18985;BME280;9626;52.552;13.436;2022-08-19T07:25:21;100353.53;;;21.86;100.00
18985;BME280;9626;52.552;13.436;2022-08-19T07:27:50;100346.31;;;21.87;100.00
18985;BME280;9626;52.552;13.436;2022-08-19T07:30:15;100349.53;;;21.92;100.00
18985;BME280;9626;52.552;13.436;2022-08-19T07:33:00;100350.19;;;21.95;100.00
18985;BME280;9626;52.552;13.436;2022-08-19T07:35:25;100353.41;;;22.01;100.00
18985;BME280;9626;52.552;13.436;2022-08-19T07:37:51;100349.72;;;22.02;100.00
18985;BME280;9626;52.552;13.436;2022-08-19T07:40:18;100350.06;;;21.97;100.00
18985;BME280;9626;52.552;13.436;2022-08-19T07:42:43;100361.69;;;21.98;100.00
18985;BME280;9626;52.552;13.436;2022-08-19T07:45:09;100362.59;;;21.98;100.00
18985;BME280;9626;52.552;13.436;2022-08-19T07:47:35;100369.28;;;21.92;100.00
18985;BME280;9626;52.552;13.436;2022-08-19T07:50:02;100378.88;;;21.97;100.00
18985;BME280;9626;52.552;13.436;2022-08-19T07:52:53;100368.59;;;22.02;100.00
18985;BME280;9626;52.552;13.436;2022-08-19T07:55:25;100369.47;;;22.02;100.00
18985;BME280;9626;52.552;13.436;2022-08-19T07:57:50;100374.75;;;22.04;100.00
18985;BME280;9626;52.552;13.436;2022-08-19T08:00:17;100384.22;;;22.09;100.00
18985;BME280;9626;52.552;13.436;2022-08-19T08:02:43;100372.59;;;22.09;100.00
18985;BME280;9626;52.552;13.436;2022-08-19T08:05:10;100377.97;;;22.09;100.00
18985;BME280;9626;52.552;13.436;2022-08-19T08:07:54;100378.72;;;22.11;100.00
18985;BME280;9626;52.552;13.436;2022-08-19T08:10:38;100393.81;;;22.14;100.00
18985;BME280;9626;52.552;13.436;2022-08-19T08:13:04;100385.38;;;22.18;100.00
18985;BME280;9626;52.552;13.436;2022-08-19T08:15:31;100386.38;;;22.17;100.00
18985;BME280;9626;52.552;13.436;2022-08-19T08:17:57;100394.88;;;22.24;100.00
18985;BME280;9626;52.552;13.436;2022-08-19T08:20:23;100401.41;;;22.33;100.00
18985;BME280;9626;52.552;13.436;2022-08-19T08:22:50;100408.22;;;22.38;100.00
18985;BME280;9626;52.552;13.436;2022-08-19T08:25:35;100410.28;;;22.35;100.00
18985;BME280;9626;52.552;13.436;2022-08-19T08:28:02;100415.44;;;22.38;100.00
18985;BME280;9626;52.552;13.436;2022-08-19T08:30:29;100413.03;;;22.33;100.00
18985;BME280;9626;52.552;13.436;2022-08-19T08:32:57;100411.47;;;22.31;100.00
18985;BME280;9626;52.552;13.436;2022-08-19T08:35:24;100411.34;;;22.32;100.00
18985;BME280;9626;52.552;13.436;2022-08-19T08:37:52;100414.69;;;22.36;100.00
18985;BME280;9626;52.552;13.436;2022-08-19T08:40:39;100417.25;;;22.37;100.00
18985;BME280;9626;52.552;13.436;2022-08-19T08:45:45;100413.03;;;22.46;100.00
18985;BME280;9626;52.552;13.436;2022-08-19T08:48:22;100422.78;;;22.36;100.00
18985;BME280;9626;52.552;13.436;2022-08-19T08:50:49;100418.25;;;22.23;100.00
18985;BME280;9626;52.552;13.436;2022-08-19T08:53:17;100425.78;;;22.31;100.00
18985;BME280;9626;52.552;13.436;2022-08-19T08:55:45;100422.97;;;22.33;100.00
18985;BME280;9626;52.552;13.436;2022-08-19T08:58:27;100415.84;;;22.32;100.00
18985;BME280;9626;52.552;13.436;2022-08-19T09:00:56;100412.28;;;22.44;100.00
18985;BME280;9626;52.552;13.436;2022-08-19T09:03:26;100427.66;;;22.55;100.00
18985;BME280;9626;52.552;13.436;2022-08-19T09:06:14;100429.16;;;22.59;100.00
18985;BME280;9626;52.552;13.436;2022-08-19T09:14:12;100429.03;;;22.23;100.00
18985;BME280;9626;52.552;13.436;2022-08-19T09:16:41;100420.41;;;22.18;100.00
18985;BME280;9626;52.552;13.436;2022-08-19T09:19:07;100416.63;;;22.21;100.00
18985;BME280;9626;52.552;13.436;2022-08-19T09:21:34;100406.16;;;22.42;100.00
18985;BME280;9626;52.552;13.436;2022-08-19T09:24:01;100405.41;;;22.64;100.00
18985;BME280;9626;52.552;13.436;2022-08-19T09:26:27;100403.81;;;22.61;100.00
18985;BME280;9626;52.552;13.436;2022-08-19T09:28:53;100404.03;;;22.58;100.00
18985;BME280;9626;52.552;13.436;2022-08-19T09:31:24;100398.94;;;22.67;100.00
18985;BME280;9626;52.552;13.436;2022-08-19T09:33:51;100396.06;;;22.81;100.00
18985;BME280;9626;52.552;13.436;2022-08-19T09:36:21;100395.84;;;22.95;100.00
18985;BME280;9626;52.552;13.436;2022-08-19T09:38:47;100399.63;;;23.17;100.00
18985;BME280;9626;52.552;13.436;2022-08-19T09:41:18;100396.22;;;23.26;100.00
18985;BME280;9626;52.552;13.436;2022-08-19T09:43:46;100403.09;;;23.31;100.00
18985;BME280;9626;52.552;13.436;2022-08-19T09:46:12;100393.25;;;23.18;100.00
18985;BME280;9626;52.552;13.436;2022-08-19T09:48:39;100392.16;;;23.21;100.00
18985;BME280;9626;52.552;13.436;2022-08-19T09:51:11;100383.69;;;23.25;100.00
18985;BME280;9626;52.552;13.436;2022-08-19T09:53:41;100382.97;;;23.35;100.00
18985;BME280;9626;52.552;13.436;2022-08-19T09:56:07;100388.63;;;23.43;100.00
18985;BME280;9626;52.552;13.436;2022-08-19T09:58:34;100386.44;;;23.59;100.00
18985;BME280;9626;52.552;13.436;2022-08-19T10:01:02;100386.81;;;23.66;100.00
18985;BME280;9626;52.552;13.436;2022-08-19T10:03:29;100386.44;;;23.71;100.00
18985;BME280;9626;52.552;13.436;2022-08-19T10:05:57;100403.88;;;23.67;100.00
18985;BME280;9626;52.552;13.436;2022-08-19T10:08:29;100398.59;;;23.42;100.00
18985;BME280;9626;52.552;13.436;2022-08-19T10:10:56;100396.75;;;23.43;100.00
18985;BME280;9626;52.552;13.436;2022-08-19T10:13:25;100396.50;;;23.46;100.00
18985;BME280;9626;52.552;13.436;2022-08-19T10:15:52;100397.72;;;23.42;100.00
18985;BME280;9626;52.552;13.436;2022-08-19T10:18:20;100392.44;;;23.40;100.00
18985;BME280;9626;52.552;13.436;2022-08-19T10:20:47;100395.25;;;23.27;100.00
18985;BME280;9626;52.552;13.436;2022-08-19T10:23:14;100387.56;;;23.10;100.00
18985;BME280;9626;52.552;13.436;2022-08-19T10:25:41;100389.81;;;23.16;100.00
18985;BME280;9626;52.552;13.436;2022-08-19T10:28:08;100390.69;;;23.17;100.00
18985;BME280;9626;52.552;13.436;2022-08-19T10:30:38;100390.91;;;23.13;100.00
18985;BME280;9626;52.552;13.436;2022-08-19T10:33:04;100385.59;;;23.12;100.00
18985;BME280;9626;52.552;13.436;2022-08-19T10:35:30;100380.72;;;23.17;100.00
18985;BME280;9626;52.552;13.436;2022-08-19T10:37:56;100382.72;;;23.15;100.00
18985;BME280;9626;52.552;13.436;2022-08-19T10:40:28;100379.19;;;23.02;100.00
18985;BME280;9626;52.552;13.436;2022-08-19T10:42:54;100382.75;;;23.02;100.00
18985;BME280;9626;52.552;13.436;2022-08-19T10:45:21;100376.09;;;23.19;100.00
18985;BME280;9626;52.552;13.436;2022-08-19T10:47:53;100374.88;;;23.35;100.00
18985;BME280;9626;52.552;13.436;2022-08-19T10:50:19;100367.53;;;23.48;100.00
18985;BME280;9626;52.552;13.436;2022-08-19T10:53:05;100366.06;;;23.67;100.00
18985;BME280;9626;52.552;13.436;2022-08-19T10:55:57;100356.38;;;23.75;100.00
18985;BME280;9626;52.552;13.436;2022-08-19T10:58:51;100367.16;;;23.64;100.00
18985;BME280;9626;52.552;13.436;2022-08-19T11:01:18;100376.34;;;23.50;100.00
18985;BME280;9626;52.552;13.436;2022-08-19T11:03:43;100381.75;;;23.27;100.00
18985;BME280;9626;52.552;13.436;2022-08-19T11:06:11;100376.84;;;22.97;100.00
18985;BME280;9626;52.552;13.436;2022-08-19T11:08:37;100384.31;;;22.93;100.00
18985;BME280;9626;52.552;13.436;2022-08-19T11:11:05;100386.16;;;22.93;100.00
18985;BME280;9626;52.552;13.436;2022-08-19T11:13:34;100398.31;;;22.99;100.00
18985;BME280;9626;52.552;13.436;2022-08-19T11:16:13;100401.63;;;22.91;100.00
18985;BME280;9626;52.552;13.436;2022-08-19T11:18:43;100394.63;;;23.00;100.00
18985;BME280;9626;52.552;13.436;2022-08-19T11:21:12;100380.56;;;23.07;100.00
18985;BME280;9626;52.552;13.436;2022-08-19T11:23:38;100395.88;;;23.07;100.00
18985;BME280;9626;52.552;13.436;2022-08-19T11:26:04;100399.78;;;23.03;100.00
18985;BME280;9626;52.552;13.436;2022-08-19T11:28:29;100403.94;;;22.95;100.00
18985;BME280;9626;52.552;13.436;2022-08-19T11:30:55;100404.44;;;22.89;100.00
18985;BME280;9626;52.552;13.436;2022-08-19T11:33:20;100405.97;;;22.81;100.00
18985;BME280;9626;52.552;13.436;2022-08-19T11:35:46;100406.09;;;22.79;100.00
18985;BME280;9626;52.552;13.436;2022-08-19T11:38:11;100403.63;;;22.76;100.00
18985;BME280;9626;52.552;13.436;2022-08-19T11:40:38;100399.72;;;22.80;100.00
18985;BME280;9626;52.552;13.436;2022-08-19T11:43:04;100408.50;;;22.71;100.00
18985;BME280;9626;52.552;13.436;2022-08-19T11:45:30;100412.66;;;22.64;100.00
18985;BME280;9626;52.552;13.436;2022-08-19T11:47:55;100410.88;;;22.51;100.00
18985;BME280;9626;52.552;13.436;2022-08-19T11:50:21;100413.91;;;22.47;100.00
18985;BME280;9626;52.552;13.436;2022-08-19T11:52:48;100416.94;;;22.42;100.00
18985;BME280;9626;52.552;13.436;2022-08-19T11:55:15;100420.38;;;22.44;100.00
18985;BME280;9626;52.552;13.436;2022-08-19T11:57:41;100420.59;;;22.41;100.00
18985;BME280;9626;52.552;13.436;2022-08-19T12:00:08;100425.75;;;22.44;100.00
18985;BME280;9626;52.552;13.436;2022-08-19T12:02:34;100430.03;;;22.59;100.00
18985;BME280;9626;52.552;13.436;2022-08-19T12:05:00;100430.13;;;22.82;100.00
18985;BME280;9626;52.552;13.436;2022-08-19T12:07:28;100430.94;;;22.95;100.00
18985;BME280;9626;52.552;13.436;2022-08-19T12:09:54;100428.06;;;23.10;100.00
18985;BME280;9626;52.552;13.436;2022-08-19T12:12:20;100430.63;;;23.11;100.00
18985;BME280;9626;52.552;13.436;2022-08-19T12:14:46;100438.31;;;22.93;100.00
18985;BME280;9626;52.552;13.436;2022-08-19T12:17:12;100434.25;;;22.88;100.00
18985;BME280;9626;52.552;13.436;2022-08-19T12:19:38;100437.59;;;23.03;100.00
18985;BME280;9626;52.552;13.436;2022-08-19T12:22:05;100438.06;;;23.21;100.00
18985;BME280;9626;52.552;13.436;2022-08-19T12:24:33;100434.19;;;23.36;100.00
18985;BME280;9626;52.552;13.436;2022-08-19T12:26:59;100437.53;;;23.62;100.00
18985;BME280;9626;52.552;13.436;2022-08-19T12:29:27;100432.63;;;23.79;100.00
18985;BME280;9626;52.552;13.436;2022-08-19T12:31:55;100423.84;;;23.88;100.00
18985;BME280;9626;52.552;13.436;2022-08-19T12:34:26;100437.25;;;24.01;100.00
18985;BME280;9626;52.552;13.436;2022-08-19T12:36:51;100437.38;;;24.00;100.00
18985;BME280;9626;52.552;13.436;2022-08-19T12:39:17;100434.41;;;24.03;100.00
18985;BME280;9626;52.552;13.436;2022-08-19T12:41:42;100436.84;;;24.06;100.00
18985;BME280;9626;52.552;13.436;2022-08-19T12:44:08;100433.66;;;24.01;100.00
18985;BME280;9626;52.552;13.436;2022-08-19T12:46:33;100434.25;;;23.82;100.00
18985;BME280;9626;52.552;13.436;2022-08-19T12:48:59;100434.88;;;23.74;100.00
18985;BME280;9626;52.552;13.436;2022-08-19T12:51:24;100437.56;;;23.85;100.00
18985;BME280;9626;52.552;13.436;2022-08-19T12:53:52;100436.75;;;23.96;100.00
18985;BME280;9626;52.552;13.436;2022-08-19T12:56:17;100437.13;;;24.03;100.00
18985;BME280;9626;52.552;13.436;2022-08-19T12:58:44;100434.66;;;24.11;100.00
18985;BME280;9626;52.552;13.436;2022-08-19T13:01:15;100431.44;;;24.28;100.00